Time;durP1;ratioP1;P1;durP2;ratioP2;P2;SDS_P1;SDS_P2;PMS_P1;PMS_P2;Temp;Humidity;BMP_temperature;BMP_pressure;BME280_temperature;BME280_humidity;BME280_pressure;Samples;Min_cycle;Max_cycle;Signal;HPM_P1;HPM_P2
2022/11/25 00:00:48;;;;;;;22.30;4.20;;;;;;;12.37;88.47;100517.25;5016682;28;20065;-65
2022/11/25 00:03:15;;;;;;;22.35;4.22;;;;;;;12.26;89.07;100521.50;5011918;28;20049;-64
2022/11/25 00:05:43;;;;;;;17.05;4.05;;;;;;;12.34;88.70;100522.63;5000943;28;20050;-64
2022/11/25 00:08:10;;;;;;;16.38;3.67;;;;;;;12.33;88.03;100512.69;5008444;28;20058;-65
2022/11/25 00:10:37;;;;;;;14.95;4.03;;;;;;;12.38;88.11;100507.81;5021088;28;20046;-65
2022/11/25 00:13:05;;;;;;;15.02;4.07;;;;;;;12.32;88.19;100494.53;5037230;28;20068;-64
2022/11/25 00:15:32;;;;;;;17.45;3.72;;;;;;;12.16;88.47;100507.22;5036246;28;20041;-64
2022/11/25 00:18:00;;;;;;;11.43;3.25;;;;;;;12.35;88.89;100518.72;5035228;28;20056;-64
2022/11/25 00:20:27;;;;;;;13.85;3.53;;;;;;;12.30;87.61;100514.19;5036764;28;20061;-64
2022/11/25 00:22:54;;;;;;;15.40;4.07;;;;;;;12.30;88.75;100521.66;5036847;28;20053;-64
2022/11/25 00:25:22;;;;;;;13.38;3.00;;;;;;;12.30;88.42;100516.94;5002606;28;20057;-64
2022/11/25 00:27:51;;;;;;;15.85;3.28;;;;;;;12.48;87.20;100520.47;5016360;28;20409;-64
2022/11/25 00:30:18;;;;;;;11.63;3.70;;;;;;;12.30;87.82;100522.47;4998714;28;20502;-64
2022/11/25 00:32:46;;;;;;;14.38;3.67;;;;;;;12.27;88.22;100525.88;5035719;28;20053;-65
2022/11/25 00:35:13;;;;;;;19.85;3.78;;;;;;;12.08;89.25;100532.94;5018483;28;20053;-64
2022/11/25 00:37:41;;;;;;;15.98;3.95;;;;;;;12.27;88.91;100519.56;5027508;28;20097;-64
2022/11/25 00:40:09;;;;;;;16.67;3.90;;;;;;;12.25;88.32;100519.88;5011456;28;20042;-65
2022/11/25 00:45:22;;;;;;;20.92;4.03;;;;;;;12.24;88.49;100536.75;5015869;28;20057;-64
2022/11/25 00:47:52;;;;;;;11.95;3.10;;;;;;;12.22;88.58;100542.63;5015915;28;20062;-64
2022/11/25 00:50:19;;;;;;;21.88;3.55;;;;;;;12.25;87.95;100527.34;5015978;28;20071;-64
2022/11/25 00:52:46;;;;;;;15.23;3.40;;;;;;;12.19;87.82;100545.22;5015504;28;20057;-64
2022/11/25 00:55:14;;;;;;;15.15;3.78;;;;;;;12.02;88.80;100543.31;4993390;28;20057;-64
2022/11/25 00:57:41;;;;;;;13.77;3.50;;;;;;;11.91;89.55;100544.78;5033650;28;20056;-64
2022/11/25 01:00:10;;;;;;;17.80;4.20;;;;;;;12.02;88.66;100543.31;5034155;28;20045;-65
2022/11/25 01:02:40;;;;;;;16.63;4.00;;;;;;;11.98;88.97;100550.63;5034519;28;20050;-64
2022/11/25 01:05:08;;;;;;;18.83;3.72;;;;;;;12.02;88.84;100553.53;5034840;28;20057;-65
2022/11/25 01:07:36;;;;;;;20.30;4.43;;;;;;;12.11;88.60;100559.88;5030159;28;20061;-64
2022/11/25 01:10:04;;;;;;;18.17;4.60;;;;;;;12.10;88.53;100559.06;5004569;28;20068;-64
2022/11/25 01:12:31;;;;;;;16.10;3.60;;;;;;;11.98;88.47;100561.66;5035437;28;20054;-64
2022/11/25 01:14:58;;;;;;;20.23;4.38;;;;;;;11.89;89.08;100563.63;5035533;28;20712;-64
2022/11/25 01:17:26;;;;;;;16.10;3.55;;;;;;;12.00;88.85;100564.91;5033781;28;20460;-65
2022/11/25 01:19:53;;;;;;;18.23;4.20;;;;;;;12.12;88.51;100578.03;5017850;28;20053;-65
2022/11/25 01:22:20;;;;;;;23.30;4.50;;;;;;;11.90;88.80;100578.22;5033641;28;20068;-66
2022/11/25 01:24:47;;;;;;;17.05;3.88;;;;;;;11.68;90.28;100581.97;5003352;28;20126;-64
2022/11/25 01:27:15;;;;;;;17.33;4.07;;;;;;;11.69;90.27;100580.84;5011829;28;20053;-64
2022/11/25 01:29:42;;;;;;;17.50;4.30;;;;;;;11.78;90.44;100581.66;5015325;28;20046;-64
2022/11/25 01:32:09;;;;;;;19.52;4.32;;;;;;;11.79;89.62;100594.31;5030499;28;20060;-65
2022/11/25 01:34:38;;;;;;;18.27;4.00;;;;;;;11.71;89.74;100597.06;5035187;28;20061;-63
2022/11/25 01:37:05;;;;;;;15.75;3.33;;;;;;;11.61;89.98;100597.34;5017559;28;20658;-64
2022/11/25 01:39:32;;;;;;;18.90;4.03;;;;;;;11.84;90.26;100604.34;5006678;28;20053;-63
2022/11/25 01:42:00;;;;;;;15.20;3.88;;;;;;;11.74;90.01;100611.03;5013890;28;20074;-64
2022/11/25 01:44:29;;;;;;;17.13;3.78;;;;;;;11.72;90.04;100618.00;5015404;28;20050;-64
2022/11/25 01:47:15;;;;;;;19.58;4.22;;;;;;;11.79;89.55;100612.81;5014733;28;20057;-64
2022/11/25 01:50:04;;;;;;;17.45;4.40;;;;;;;12.08;89.24;100627.59;5013627;28;20532;-64
2022/11/25 01:52:42;;;;;;;18.23;4.25;;;;;;;12.11;87.83;100626.13;5013710;28;20421;-63
2022/11/25 01:55:13;;;;;;;16.40;3.67;;;;;;;11.80;88.63;100625.47;5015590;28;20065;-64
2022/11/25 01:57:46;;;;;;;13.07;3.72;;;;;;;11.79;89.00;100621.91;5014161;28;20050;-64
2022/11/25 02:00:13;;;;;;;16.90;3.65;;;;;;;11.65;89.70;100631.44;5013583;28;20201;-64
2022/11/25 02:02:43;;;;;;;;;;;;;;;11.58;90.36;100629.16;5015717;28;20046;-64
2022/11/25 02:05:13;;;;;;;18.77;3.10;;;;;;;11.81;89.77;100640.91;5013978;28;19922;-65
2022/11/25 02:07:43;;;;;;;17.48;4.22;;;;;;;11.71;89.21;100638.44;5008104;28;20042;-64
2022/11/25 02:10:13;;;;;;;16.27;3.42;;;;;;;11.79;89.24;100637.63;5008115;28;20041;-62
2022/11/25 02:12:43;;;;;;;15.68;3.22;;;;;;;11.63;89.34;100642.00;5033401;28;20053;-65
2022/11/25 02:15:12;;;;;;;15.38;3.58;;;;;;;11.58;89.96;100642.13;5033146;28;20045;-64
2022/11/25 02:17:41;;;;;;;13.07;3.55;;;;;;;11.64;89.69;100640.84;5016714;28;20053;-64
2022/11/25 02:20:13;;;;;;;17.80;3.75;;;;;;;11.50;89.62;100646.50;5033833;28;20412;-65
2022/11/25 02:22:44;;;;;;;16.98;4.18;;;;;;;11.44;90.65;100644.22;5028617;28;20053;-64
2022/11/25 02:25:29;;;;;;;15.50;3.25;;;;;;;11.40;90.73;100646.81;5010117;28;20077;-64
2022/11/25 02:28:13;;;;;;;16.35;3.92;;;;;;;11.53;89.98;100651.38;5013070;28;20061;-66
2022/11/25 02:30:41;;;;;;;15.88;3.05;;;;;;;11.42;90.19;100658.31;5012103;28;20107;-64
2022/11/25 02:33:09;;;;;;;17.25;3.83;;;;;;;11.43;89.54;100670.16;4998161;28;20512;-64
2022/11/25 02:35:39;;;;;;;18.88;3.40;;;;;;;11.42;89.71;100665.78;5013201;28;20076;-63
2022/11/25 02:38:19;;;;;;;23.35;4.22;;;;;;;11.26;89.95;100671.72;4996326;28;20060;-64
2022/11/25 02:41:11;;;;;;;17.60;3.47;;;;;;;11.22;90.46;100678.22;5013320;28;20046;-64
2022/11/25 02:43:39;;;;;;;24.92;3.70;;;;;;;11.18;90.92;100675.28;5013711;28;20050;-64
2022/11/25 02:46:12;;;;;;;15.80;3.53;;;;;;;11.18;90.74;100686.31;5014108;28;20046;-63
2022/11/25 02:48:48;;;;;;;18.20;4.00;;;;;;;11.41;90.48;100687.03;5012365;28;20050;-64
2022/11/25 02:51:36;;;;;;;17.10;3.55;;;;;;;11.43;89.26;100687.53;4999247;28;20058;-64
2022/11/25 02:54:04;;;;;;;20.92;4.05;;;;;;;11.32;89.37;100689.75;5014411;28;20053;-64
2022/11/25 02:56:33;;;;;;;23.55;3.17;;;;;;;11.49;89.35;100686.25;5013365;28;20050;-65
2022/11/25 02:59:01;;;;;;;25.20;4.23;;;;;;;11.46;88.79;100691.56;5015389;28;20415;-64
2022/11/25 03:01:30;;;;;;;18.63;3.25;;;;;;;11.25;89.31;100692.16;5016659;28;20057;-63
2022/11/25 03:03:58;;;;;;;21.77;3.90;;;;;;;11.31;89.57;100701.13;5015868;28;20164;-65
2022/11/25 03:06:28;;;;;;;18.40;3.67;;;;;;;11.13;90.24;100710.44;5016555;28;20054;-64
2022/11/25 03:08:56;;;;;;;21.83;3.75;;;;;;;11.28;90.10;100702.56;5017120;28;20054;-64
2022/11/25 03:14:29;;;;;;;18.75;3.65;;;;;;;11.20;90.27;100716.31;5018982;28;20485;-63
2022/11/25 03:16:57;;;;;;;28.35;3.55;;;;;;;11.26;90.20;100720.56;5018209;28;20053;-64
2022/11/25 03:19:25;;;;;;;15.93;3.67;;;;;;;11.34;89.84;100717.84;5012301;28;20520;-64
2022/11/25 03:21:53;;;;;;;20.08;3.42;;;;;;;11.34;89.28;100720.59;5004345;28;20055;-63
2022/11/25 03:24:20;;;;;;;17.77;3.40;;;;;;;11.21;89.23;100734.47;4996333;28;20058;-63
2022/11/25 03:26:48;;;;;;;15.13;3.35;;;;;;;11.34;89.10;100733.56;5010254;28;20061;-63
2022/11/25 03:29:17;;;;;;;22.20;4.28;;;;;;;11.42;88.68;100743.00;5016478;28;20050;-63
2022/11/25 03:31:44;;;;;;;18.17;4.00;;;;;;;11.35;88.67;100749.78;5030314;28;20072;-64
2022/11/25 03:34:11;;;;;;;17.38;3.58;;;;;;;11.32;89.08;100744.91;5036077;28;20072;-64
2022/11/25 03:36:39;;;;;;;17.85;3.25;;;;;;;11.29;89.01;100753.00;5027410;28;20061;-64
2022/11/25 03:39:07;;;;;;;20.67;3.72;;;;;;;11.37;88.42;100752.22;5004196;28;20053;-65
2022/11/25 03:41:36;;;;;;;17.48;3.53;;;;;;;11.41;88.76;100766.19;5024228;28;20391;-65
2022/11/25 03:44:04;;;;;;;24.85;4.10;;;;;;;11.45;88.43;100758.91;5016552;28;20046;-64
2022/11/25 03:46:33;;;;;;;22.98;4.28;;;;;;;11.31;88.59;100773.59;5015964;28;20050;-63
2022/11/25 03:49:03;;;;;;;29.92;4.63;;;;;;;11.36;88.52;100764.41;5016197;28;20060;-65
2022/11/25 03:51:30;;;;;;;21.00;3.63;;;;;;;11.22;88.72;100775.53;5011626;28;20054;-64
2022/11/25 03:53:59;;;;;;;26.52;4.30;;;;;;;11.35;88.77;100777.38;4999447;28;20060;-64
2022/11/25 03:56:26;;;;;;;18.35;3.78;;;;;;;11.20;89.14;100785.22;5015808;28;20513;-64
2022/11/25 03:58:53;;;;;;;26.70;3.92;;;;;;;11.06;89.84;100782.56;5016397;28;20061;-65
2022/11/25 04:01:21;;;;;;;22.20;3.97;;;;;;;11.10;90.39;100786.31;5015754;28;20073;-64
2022/11/25 04:03:49;;;;;;;19.08;4.25;;;;;;;11.18;89.95;100784.72;5016055;28;20054;-64
2022/11/25 04:06:19;;;;;;;20.92;4.30;;;;;;;11.14;89.72;100792.81;5015478;28;20076;-63
2022/11/25 04:08:47;;;;;;;;;;;;;;;11.08;90.16;100788.59;5015729;28;20053;-64
2022/11/25 04:11:14;;;;;;;24.58;4.38;;;;;;;11.14;89.71;100783.75;5027792;28;19921;-63
2022/11/25 04:13:45;;;;;;;24.20;4.68;;;;;;;10.92;89.78;100790.09;5035300;28;20052;-64
2022/11/25 04:16:22;;;;;;;26.67;4.55;;;;;;;10.74;91.13;100793.03;5035004;28;20057;-64
2022/11/25 04:18:51;;;;;;;23.83;4.07;;;;;;;10.68;92.39;100797.84;5035808;28;20060;-64
2022/11/25 04:21:18;;;;;;;26.85;4.55;;;;;;;10.86;92.02;100799.59;5023210;28;20069;-64
2022/11/25 04:23:45;;;;;;;21.25;3.75;;;;;;;10.91;91.79;100804.19;4997449;28;20058;-63
2022/11/25 04:26:14;;;;;;;23.75;4.43;;;;;;;11.03;90.94;100810.75;5004066;28;20053;-64
2022/11/25 04:28:41;;;;;;;25.52;4.60;;;;;;;10.79;91.04;100809.44;5016766;28;20057;-63
2022/11/25 04:31:09;;;;;;;20.23;4.35;;;;;;;10.78;92.10;100818.81;5023242;28;20521;-63
2022/11/25 04:33:40;;;;;;;27.63;4.22;;;;;;;10.75;91.66;100827.72;5035584;28;20052;-63
2022/11/25 04:36:08;;;;;;;21.67;4.40;;;;;;;10.82;91.73;100823.41;5026321;28;20050;-63
2022/11/25 04:38:35;;;;;;;28.05;4.53;;;;;;;10.64;92.21;100827.13;5015428;28;20359;-64
2022/11/25 04:41:04;;;;;;;32.75;4.70;;;;;;;10.79;92.24;100823.22;5014447;28;20050;-64
2022/11/25 04:43:37;;;;;;;33.40;4.90;;;;;;;10.96;91.65;100829.69;4999676;28;20053;-64
2022/11/25 04:46:15;;;;;;;28.45;4.50;;;;;;;11.02;91.16;100838.63;5014271;28;20053;-63
2022/11/25 04:48:46;;;;;;;24.85;4.72;;;;;;;11.03;90.91;100845.78;5014758;28;20073;-64
2022/11/25 04:51:14;;;;;;;24.98;5.00;;;;;;;10.99;90.58;100847.53;5014007;28;20046;-64
2022/11/25 04:53:44;;;;;;;30.52;4.85;;;;;;;11.03;90.86;100856.78;5014790;28;20050;-64
2022/11/25 04:56:17;;;;;;;31.10;5.22;;;;;;;10.88;90.82;100848.91;4998328;28;20359;-64
2022/11/25 05:01:35;;;;;;;28.38;4.85;;;;;;;10.95;90.26;100852.84;5014678;28;20065;-63
2022/11/25 05:04:14;;;;;;;25.20;4.63;;;;;;;11.05;90.35;100863.63;5014766;28;20052;-65
2022/11/25 05:06:42;;;;;;;20.58;4.22;;;;;;;11.08;89.92;100868.53;5013178;28;20544;-62
2022/11/25 05:09:11;;;;;;;25.55;4.10;;;;;;;10.95;89.85;100865.78;5001731;28;20050;-63
2022/11/25 05:11:40;;;;;;;20.23;5.13;;;;;;;10.86;90.31;100873.19;5043516;28;20056;-65
2022/11/25 05:14:08;;;;;;;22.27;4.82;;;;;;;10.72;91.17;100877.94;5034734;28;20626;-63
2022/11/25 05:16:35;;;;;;;27.02;5.10;;;;;;;10.87;90.76;100881.16;5033470;28;20061;-64
2022/11/25 05:19:03;;;;;;;22.02;4.70;;;;;;;10.71;91.53;100890.06;5017621;28;20053;-64
2022/11/25 05:21:31;;;;;;;21.95;5.03;;;;;;;10.75;91.25;100897.41;5020431;28;20061;-64
2022/11/25 05:23:59;;;;;;;28.52;4.88;;;;;;;10.81;90.91;100898.91;5013982;28;20046;-64
2022/11/25 05:26:28;;;;;;;25.95;4.97;;;;;;;10.76;91.64;100899.03;5013280;28;20050;-65
2022/11/25 05:28:58;;;;;;;26.65;4.82;;;;;;;10.76;90.93;100895.47;5014654;28;20069;-64
2022/11/25 05:31:26;;;;;;;20.13;4.68;;;;;;;10.88;91.17;100899.31;5024114;28;20501;-64
2022/11/25 05:33:53;;;;;;;29.80;4.97;;;;;;;10.84;91.00;100911.28;5034244;28;20049;-65
2022/11/25 05:36:22;;;;;;;31.27;5.85;;;;;;;10.64;91.61;100904.28;5023905;28;20053;-64
2022/11/25 05:38:49;;;;;;;24.35;5.00;;;;;;;10.85;91.30;100913.72;5015643;28;20054;-64
2022/11/25 05:41:25;;;;;;;21.10;4.03;;;;;;;10.78;90.90;100924.34;5013890;28;20073;-64
2022/11/25 05:43:53;;;;;;;29.73;5.38;;;;;;;10.51;91.09;100918.91;4998066;28;20049;-64
2022/11/25 05:46:21;;;;;;;28.95;5.55;;;;;;;10.61;91.76;100928.88;5013655;28;20049;-64
2022/11/25 05:48:54;;;;;;;30.48;5.25;;;;;;;10.50;91.38;100925.50;5013925;28;20054;-65
2022/11/25 05:51:22;;;;;;;23.67;4.45;;;;;;;10.56;91.63;100926.22;5012864;28;20058;-64
2022/11/25 05:53:51;;;;;;;24.42;4.43;;;;;;;10.65;91.19;100933.44;5014109;28;20065;-64
2022/11/25 05:56:20;;;;;;;29.25;5.22;;;;;;;10.47;91.58;100926.13;5013324;28;20049;-64
2022/11/25 05:59:23;;;;;;;29.15;5.18;;;;;;;10.37;92.71;100937.38;4973218;28;20585;-64
2022/11/25 06:02:13;;;;;;;;;;;;;;;10.41;92.51;100935.59;4991596;28;20055;-64
2022/11/25 06:04:40;;;;;;;24.52;4.82;;;;;;;10.54;92.02;100933.97;4994313;28;19933;-64
2022/11/25 06:07:08;;;;;;;27.80;5.40;;;;;;;10.65;91.03;100927.94;5009543;28;20038;-63
2022/11/25 06:09:35;;;;;;;26.17;4.97;;;;;;;10.58;90.89;100937.75;5013669;28;20563;-63
2022/11/25 06:12:03;;;;;;;27.80;5.35;;;;;;;10.58;91.12;100940.50;5015996;28;20056;-63
2022/11/25 06:14:33;;;;;;;29.95;5.15;;;;;;;10.56;91.01;100949.06;5033397;28;20072;-63
2022/11/25 06:17:01;;;;;;;23.02;4.53;;;;;;;10.66;90.51;100951.63;5016616;28;20045;-63
2022/11/25 06:19:36;;;;;;;25.77;4.40;;;;;;;10.57;89.94;100950.69;5013688;28;20518;-64
2022/11/25 06:22:03;;;;;;;24.95;5.40;;;;;;;10.62;90.07;100953.34;5013290;28;20046;-63
2022/11/25 06:24:30;;;;;;;24.83;4.85;;;;;;;10.45;90.23;100966.09;5013796;28;20247;-63
2022/11/25 06:27:03;;;;;;;25.58;5.32;;;;;;;10.54;90.04;100969.78;5013156;28;20054;-63
2022/11/25 06:29:32;;;;;;;27.52;4.90;;;;;;;10.48;89.83;100974.56;5013806;28;20469;-63
2022/11/25 06:31:59;;;;;;;30.77;5.13;;;;;;;10.52;90.31;100975.59;5012160;28;20053;-63
2022/11/25 06:34:41;;;;;;;29.75;5.15;;;;;;;10.70;89.67;100977.44;5017164;28;20045;-64
2022/11/25 06:37:23;;;;;;;32.10;5.10;;;;;;;10.46;89.27;100984.28;5016832;28;20608;-65
2022/11/25 06:39:51;;;;;;;23.98;4.65;;;;;;;10.53;88.74;100993.75;5018437;28;20053;-65
2022/11/25 06:42:18;;;;;;;30.50;5.57;;;;;;;10.53;89.10;100996.50;5018537;28;20402;-65
2022/11/25 06:44:45;;;;;;;26.15;6.85;;;;;;;10.79;88.86;101005.06;5017668;28;20037;-64
2022/11/25 06:47:13;;;;;;;33.60;9.88;;;;;;;10.68;88.61;101003.63;5017833;28;20049;-63
2022/11/25 06:49:40;;;;;;;28.83;7.50;;;;;;;10.25;89.73;101002.31;5018523;28;20050;-65
2022/11/25 06:52:07;;;;;;;29.15;9.18;;;;;;;10.43;89.96;101004.13;5002905;28;20069;-64
2022/11/25 06:54:35;;;;;;;26.20;5.97;;;;;;;10.68;88.57;101006.41;5012133;28;20145;-64
2022/11/25 06:57:02;;;;;;;24.90;6.05;;;;;;;10.52;88.62;101007.81;5015888;28;20058;-64
2022/11/25 06:59:31;;;;;;;24.60;4.88;;;;;;;10.48;89.30;101010.38;5016048;28;20061;-64
2022/11/25 07:01:58;;;;;;;29.88;5.22;;;;;;;10.43;89.42;101015.97;5013028;28;20061;-63
2022/11/25 07:04:25;;;;;;;25.13;6.18;;;;;;;10.29;89.79;101004.13;5018140;28;20057;-64
2022/11/25 07:06:53;;;;;;;36.00;10.70;;;;;;;10.36;90.13;101004.56;5017438;28;20533;-65
2022/11/25 07:09:21;;;;;;;23.85;7.68;;;;;;;10.37;89.65;101010.88;5018069;28;20046;-64
2022/11/25 07:11:48;;;;;;;32.15;6.30;;;;;;;10.40;89.78;101008.34;5034753;28;20041;-64
2022/11/25 07:14:16;;;;;;;33.40;7.20;;;;;;;10.49;89.37;101019.47;5036838;28;20049;-64
2022/11/25 07:16:44;;;;;;;31.83;9.32;;;;;;;10.45;88.92;101013.75;5028747;28;20041;-65
2022/11/25 07:19:13;;;;;;;32.67;9.32;;;;;;;10.55;88.72;101012.75;5015500;28;20393;-63
2022/11/25 07:21:42;;;;;;;24.73;5.57;;;;;;;10.41;88.84;101015.47;5019486;28;20033;-64
2022/11/25 07:24:09;;;;;;;30.05;6.07;;;;;;;10.43;89.38;101024.25;5024595;28;20054;-63
2022/11/25 07:26:38;;;;;;;21.92;4.78;;;;;;;10.31;89.52;101039.63;5018451;28;20049;-64
2022/11/25 07:29:11;;;;;;;24.73;4.25;;;;;;;10.13;90.09;101030.31;5002898;28;20058;-64
2022/11/25 07:31:58;;;;;;;27.67;5.53;;;;;;;10.22;90.33;101036.75;4999146;28;20038;-65
2022/11/25 07:34:25;;;;;;;26.38;5.32;;;;;;;10.23;90.73;101043.09;4999590;28;20054;-64
2022/11/25 07:36:52;;;;;;;28.02;5.05;;;;;;;10.20;90.33;101050.81;5002298;28;20054;-61
2022/11/25 07:39:21;;;;;;;26.90;9.23;;;;;;;10.32;89.82;101055.03;4998349;28;20050;-62
2022/11/25 07:41:50;;;;;;;31.17;8.57;;;;;;;10.40;89.39;101057.06;5013397;28;20490;-63
2022/11/25 07:44:18;;;;;;;27.30;5.82;;;;;;;10.49;89.38;101074.53;5005202;28;20054;-64
2022/11/25 07:46:51;;;;;;;23.40;4.72;;;;;;;10.75;88.66;101076.50;5008751;28;20050;-55
2022/11/25 07:49:23;;;;;;;19.80;4.28;;;;;;;10.82;87.17;101076.91;5027554;28;20105;-57
2022/11/25 07:51:56;;;;;;;21.83;5.50;;;;;;;11.02;86.55;101070.16;5008217;28;20049;-55
2022/11/25 07:54:24;;;;;;;25.60;5.45;;;;;;;10.69;86.71;101080.47;5006173;28;20057;-58
2022/11/25 07:56:52;;;;;;;25.67;5.25;;;;;;;10.94;89.61;101088.25;4993454;28;20060;-61
2022/11/25 07:59:21;;;;;;;19.33;4.88;;;;;;;11.08;87.90;101091.81;5010963;28;20049;-62
2022/11/25 08:01:53;;;;;;;18.42;4.30;;;;;;;11.24;85.16;101101.38;5013126;28;20370;-58
2022/11/25 08:04:21;;;;;;;17.45;5.03;;;;;;;11.20;84.26;101103.13;5011224;28;20054;-58
2022/11/25 08:06:50;;;;;;;20.17;5.25;;;;;;;11.27;84.06;101109.03;5006799;28;20056;-60
2022/11/25 08:09:22;;;;;;;18.20;4.45;;;;;;;11.16;83.87;101117.81;5021855;28;20132;-60
2022/11/25 08:11:50;;;;;;;23.83;5.15;;;;;;;10.98;84.33;101129.78;5028179;28;20054;-61
2022/11/25 08:14:17;;;;;;;24.30;5.35;;;;;;;10.90;85.44;101145.09;5015178;28;20058;-62
2022/11/25 08:16:45;;;;;;;29.20;4.78;;;;;;;10.94;84.87;101145.28;5011270;28;20052;-60
2022/11/25 08:19:14;;;;;;;21.85;5.75;;;;;;;11.17;84.23;101147.88;5005049;28;20057;-62
2022/11/25 08:21:42;;;;;;;22.30;5.40;;;;;;;11.17;83.86;101158.91;5014182;28;20062;-61
2022/11/25 08:24:14;;;;;;;23.83;6.75;;;;;;;11.01;84.31;101163.06;5006044;28;20053;-61
2022/11/25 08:26:42;;;;;;;25.25;5.70;;;;;;;10.91;84.82;101159.69;5014614;28;20045;-62
2022/11/25 08:29:12;;;;;;;22.20;4.75;;;;;;;11.14;84.55;101156.72;5007264;28;20437;-62
2022/11/25 08:31:39;;;;;;;22.75;5.45;;;;;;;11.00;84.43;101160.63;5012819;28;20050;-62
2022/11/25 08:34:06;;;;;;;21.98;5.40;;;;;;;11.11;84.16;101165.63;5013280;28;20053;-61
2022/11/25 08:36:35;;;;;;;22.50;4.47;;;;;;;11.15;83.85;101172.16;5006070;28;20061;-61
2022/11/25 08:39:05;;;;;;;27.25;6.13;;;;;;;10.94;84.55;101165.41;5007180;28;20045;-61
2022/11/25 08:41:52;;;;;;;23.98;6.88;;;;;;;11.28;84.02;101170.50;5028127;28;20046;-62
2022/11/25 08:44:20;;;;;;;32.00;12.23;;;;;;;11.24;83.58;101175.03;5008476;28;20629;-61
2022/11/25 08:46:47;;;;;;;23.30;5.57;;;;;;;10.96;84.28;101170.63;5006244;28;20042;-62
2022/11/25 08:49:16;;;;;;;25.67;4.97;;;;;;;10.87;85.28;101181.53;5004543;28;20050;-62
2022/11/25 08:51:43;;;;;;;28.77;5.30;;;;;;;10.96;85.22;101187.16;5007423;28;20084;-61
2022/11/25 08:54:11;;;;;;;25.08;5.40;;;;;;;11.20;84.60;101204.31;5011107;28;20062;-62
2022/11/25 08:56:38;;;;;;;24.17;5.22;;;;;;;11.08;84.55;101196.56;5023112;28;20050;-62
2022/11/25 08:59:05;;;;;;;25.13;5.38;;;;;;;10.95;84.86;101204.78;5012138;28;20053;-63
2022/11/25 09:01:33;;;;;;;27.25;5.13;;;;;;;10.88;85.08;101210.72;5006976;28;20045;-62
2022/11/25 09:04:00;;;;;;;25.33;5.20;;;;;;;10.92;85.18;101213.69;5004081;28;20046;-61
2022/11/25 09:06:28;;;;;;;29.45;5.97;;;;;;;10.88;85.22;101213.47;5005553;28;20390;-60
2022/11/25 09:08:58;;;;;;;23.77;4.93;;;;;;;10.98;85.16;101215.25;5007421;28;20049;-63
2022/11/25 09:11:25;;;;;;;22.40;4.95;;;;;;;11.12;84.47;101230.66;5008259;28;20053;-62
2022/11/25 09:13:52;;;;;;;28.85;5.88;;;;;;;11.14;84.15;101231.16;5009026;28;20050;-62
2022/11/25 09:16:20;;;;;;;25.00;5.30;;;;;;;11.26;83.66;101237.00;5006025;28;20042;-62
2022/11/25 09:18:47;;;;;;;26.48;5.18;;;;;;;11.09;84.27;101236.78;5003488;28;20108;-62
2022/11/25 09:21:23;;;;;;;26.63;5.80;;;;;;;11.18;84.46;101239.66;5001101;28;20051;-60
2022/11/25 09:23:53;;;;;;;28.35;6.30;;;;;;;11.22;84.12;101246.19;5006502;28;20052;-63
2022/11/25 09:26:28;;;;;;;20.58;5.20;;;;;;;11.14;84.23;101242.19;5005539;28;20050;-62
2022/11/25 09:28:56;;;;;;;20.63;5.38;;;;;;;11.23;84.19;101254.16;5002205;28;20493;-62
2022/11/25 09:31:23;;;;;;;24.02;5.20;;;;;;;11.15;83.74;101256.81;5001259;28;20038;-62
2022/11/25 09:33:51;;;;;;;23.40;5.07;;;;;;;11.14;84.31;101268.97;5008274;28;20058;-62
2022/11/25 09:36:19;;;;;;;26.17;6.07;;;;;;;11.28;83.87;101269.78;5001528;28;20104;-63
2022/11/25 09:38:47;;;;;;;32.63;6.05;;;;;;;11.35;83.51;101271.03;5006169;28;20394;-62
2022/11/25 09:46:40;;;;;;;25.73;5.47;;;;;;;11.30;83.38;101273.06;5000070;28;20062;-62
2022/11/25 09:47:39;;;;;;;67.38;32.15;;;;;;;11.38;83.08;101288.09;5007149;28;20692;-62
2022/11/25 09:50:22;;;;;;;37.13;7.20;;;;;;;11.40;82.61;101285.84;5004773;28;20398;-62
2022/11/25 09:53:09;;;;;;;24.38;4.70;;;;;;;11.30;82.70;101295.13;5004737;28;20605;-62
2022/11/25 09:55:41;;;;;;;27.38;5.10;;;;;;;11.20;82.61;101309.09;5008046;28;20077;-62
2022/11/25 09:58:32;;;;;;;27.63;6.47;;;;;;;10.91;83.94;101309.31;5008641;28;20056;-62
2022/11/25 10:01:04;;;;;;;22.67;4.35;;;;;;;11.11;83.50;101314.50;4982432;28;20516;-61
2022/11/25 10:03:37;;;;;;;19.80;5.15;;;;;;;11.31;83.14;101318.84;5021235;28;20413;-61
2022/11/25 10:06:17;;;;;;;23.45;4.35;;;;;;;11.09;83.01;101321.41;5010647;28;20069;-62
2022/11/25 10:08:47;;;;;;;;;;;;;;;10.86;84.47;101325.16;5007662;28;20512;-63
2022/11/25 10:11:21;;;;;;;25.52;5.15;;;;;;;10.89;84.14;101328.13;5011824;28;19921;-61
2022/11/25 10:14:06;;;;;;;26.13;5.28;;;;;;;11.11;83.56;101331.03;5011479;28;20505;-62
2022/11/25 10:16:36;;;;;;;28.90;4.82;;;;;;;11.00;84.32;101337.84;5003658;28;20490;-62
2022/11/25 10:19:23;;;;;;;24.25;4.97;;;;;;;11.01;84.30;101345.00;5006766;28;20049;-60
2022/11/25 10:21:51;;;;;;;24.67;4.60;;;;;;;11.15;84.13;101343.13;5005527;28;20046;-61
2022/11/25 10:24:20;;;;;;;24.58;5.28;;;;;;;11.43;83.00;101349.50;5009294;28;20505;-61
2022/11/25 10:26:53;;;;;;;21.85;4.90;;;;;;;11.18;82.30;101353.53;5011208;28;20042;-60
2022/11/25 10:29:24;;;;;;;20.83;5.78;;;;;;;11.21;83.67;101352.91;5007484;28;20042;-63
2022/11/25 10:31:58;;;;;;;24.10;5.43;;;;;;;11.47;82.24;101355.22;4994032;28;20076;-63
2022/11/25 10:34:39;;;;;;;31.13;6.40;;;;;;;11.44;81.86;101355.84;5011984;28;20425;-62
2022/11/25 10:37:12;;;;;;;20.85;4.60;;;;;;;11.19;82.22;101360.66;4991406;28;20046;-63
2022/11/25 10:39:40;;;;;;;24.10;4.38;;;;;;;11.40;82.29;101360.31;5005566;28;20058;-61
2022/11/25 10:42:17;;;;;;;24.85;5.10;;;;;;;11.32;82.10;101365.41;5011017;28;20061;-62
2022/11/25 10:44:45;;;;;;;27.90;5.18;;;;;;;11.65;81.93;101357.13;5009929;28;20042;-63
2022/11/25 10:47:35;;;;;;;26.45;5.10;;;;;;;11.42;82.15;101361.66;4993039;28;20045;-62
2022/11/25 10:50:28;;;;;;;27.52;4.95;;;;;;;11.41;82.11;101370.22;5008761;28;20049;-63
2022/11/25 10:53:09;;;;;;;31.00;5.30;;;;;;;11.59;81.64;101367.41;4994401;28;20050;-63
2022/11/25 10:55:36;;;;;;;19.27;5.13;;;;;;;11.58;80.74;101364.94;5004343;28;20054;-63
2022/11/25 10:58:27;;;;;;;28.85;5.40;;;;;;;11.49;82.03;101375.84;5007193;28;20046;-64
2022/11/25 11:01:04;;;;;;;26.02;5.25;;;;;;;11.84;81.17;101382.69;5003296;28;20048;-61
2022/11/25 11:03:32;;;;;;;26.77;6.07;;;;;;;11.74;80.73;101383.72;5011248;28;20397;-64
2022/11/25 11:05:59;;;;;;;26.17;5.20;;;;;;;11.68;80.54;101389.63;5003607;28;20046;-63
2022/11/25 11:08:36;;;;;;;35.83;6.22;;;;;;;11.75;80.89;101388.09;5000727;28;20049;-62
2022/11/25 11:11:13;;;;;;;20.92;4.57;;;;;;;12.10;80.37;101390.16;5004700;28;20049;-62
2022/11/25 11:13:41;;;;;;;23.40;5.13;;;;;;;12.00;79.61;101384.03;4998738;28;20053;-63
2022/11/25 11:16:28;;;;;;;25.05;4.80;;;;;;;12.05;79.00;101387.50;5005956;28;20049;-62
2022/11/25 11:18:56;;;;;;;26.35;5.40;;;;;;;11.71;80.15;101392.59;4998103;28;20065;-62
2022/11/25 11:21:36;;;;;;;22.77;5.40;;;;;;;11.62;80.97;101401.84;5025484;28;20054;-62
2022/11/25 11:24:21;;;;;;;;;;;;;;;11.82;80.81;101399.56;5011402;28;20080;-61
2022/11/25 11:27:13;;;;;;;29.35;4.70;;;;;;;12.01;79.52;101400.28;5008322;28;19929;-62
2022/11/25 11:29:41;;;;;;;31.90;5.05;;;;;;;12.00;79.86;101406.94;5000495;28;20046;-61
2022/11/25 11:32:19;;;;;;;25.02;5.05;;;;;;;11.98;79.02;101405.59;5010393;28;20045;-62
2022/11/25 11:34:50;;;;;;;27.52;5.63;;;;;;;12.09;79.24;101407.88;5002405;28;20047;-62
2022/11/25 11:37:35;;;;;;;;;;;;;;;12.10;78.98;101408.69;5010155;28;20446;-61
2022/11/25 11:40:24;;;;;;;26.75;5.10;;;;;;;12.39;78.56;101410.00;5002093;28;19932;-62
2022/11/25 11:43:10;;;;;;;37.45;5.80;;;;;;;12.37;77.98;101416.97;5014853;28;20141;-61
2022/11/25 11:45:55;;;;;;;24.30;4.97;;;;;;;12.50;77.29;101418.88;5003656;28;20462;-63
2022/11/25 11:48:31;;;;;;;23.83;4.85;;;;;;;12.29;77.35;101417.69;5015299;28;20042;-63